Toronto, South Dakota
Current Conditions -  °F | °C
As of 11:33 AM on Friday 24 Oct 2014 (Local Time) from KCNB Reporting Station
Clear Clear  
Wind Chill: 65°   Ceiling: Unl
Heat Index: 65°   Visibility: 10mi
Dew Point: 49°   Wind: 7mph
Humidity: 56%   Direction: 300°WNW
Pressure: 29.88"   Gusts: NA
Location:  44.57°N, 96.64°W
Report Text: KCNB 241633Z AUTO 30006KT 10SM CLR 18/09 A2988 RMK AO2 T01820092
Loading
Personal Weather Stations






























Interactive Weather Map
Tropical Storm Tracking
New forecast layout! Learn more

10-Day Weather Forecast

Advertisements
Track Severe Weather on mobile